This is the latest recevied weather packets stored in our database for station/object EA5JUX. If no packets are shown the sender has not sent any weather packets the latest 10 day(s).
| Time | Temp. | Humidity | Pressure | Rain* | Wind** | Luminosity | Snow |
|---|---|---|---|---|---|---|---|
| 1787836001 | 28.33° C | 62% | 1010.5 hPa | 0 mm | - | - | - |
| 1787835701 | 28.33° C | 61% | 1010.5 hPa | 0 mm | - | - | - |
| 1787835400 | 29.44° C | 59% | 1010.6 hPa | 0 mm | - | - | - |
| 1787835116 | 29.44° C | 58% | 1010.4 hPa | 0 mm | - | - | - |
| 1787834801 | 29.44° C | 53% | 1010.8 hPa | 0 mm | - | - | - |
| 1787834501 | 30.56° C | 54% | 1010.4 hPa | 0 mm | - | - | - |
| 1787834201 | 31.67° C | 44% | 1010.2 hPa | 0 mm | - | - | - |
| 1787833909 | 31.67° C | 44% | 1010.3 hPa | 0 mm | - | - | - |
| 1787833601 | 31.11° C | 46% | 1010.3 hPa | 0 mm | - | - | - |
| 1787833301 | 30.56° C | 46% | 1010.2 hPa | 0 mm | - | - | - |
| 1787833000 | 30° C | 54% | 1010.6 hPa | 0 mm | - | - | - |
| 1787832701 | 31.11° C | 48% | 1010.4 hPa | 0 mm | - | - | - |
| 1787832401 | 30° C | 50% | 1010.2 hPa | 0 mm | - | - | - |
| 1787832114 | 30.56° C | 44% | 1010.7 hPa | 0 mm | - | - | - |
| 1787831801 | 30.56° C | 44% | 1011.1 hPa | 0 mm | - | - | - |
| 1787831501 | 29.44° C | 52% | 1011 hPa | 0 mm | - | - | - |
| 1787831201 | 29.44° C | 55% | 1011 hPa | 0 mm | - | - | - |
| 1787830901 | 30° C | 50% | 1011 hPa | 0 mm | - | - | - |
| 1787830600 | 31.67° C | 40% | 1010.9 hPa | 0 mm | - | - | - |
| 1787830300 | 31.11° C | 43% | 1010.9 hPa | 0 mm | - | - | - |
| 1787830001 | 31.11° C | 43% | 1010.7 hPa | 0 mm | - | - | - |
| 1787829701 | 30.56° C | 44% | 1010.6 hPa | 0 mm | - | - | - |
| 1787829415 | 30° C | 46% | 1010.7 hPa | 0 mm | - | - | - |
| 1787829101 | 29.44° C | 47% | 1010.8 hPa | 0 mm | - | - | - |
| 1787828821 | 30° C | 47% | 1010.9 hPa | 0 mm | - | - | - |
* Rain latest hour (hover to see other rain measurements)
** Current wind speed in m/s (hover to see current wind gust speed)